Rosa Maersk — OVST2 — position and weather

sailwx.info

Track history (hours):
 
Tides and Currents Weather Stations Pressure Air Temp Water Temp Dewpoint Dewpoint Depression Visibility Wind Speed Wind Dir Waves Ship Positions

Rosa Maersk

Last reported at 2016-May-28 17:05 UTC. Time now 2016-May-31 14:18 UTC.
Position N 44°51' E 036°30'.

Length 172 m; draft 8.8 m.

Type: Ship. MMSI: 220288000.

Date/timePositionNaut miles runAvg speedWind from/ knotsBaromVisibWave heightAir tempDewpointWater temp
2016-May-28 17:05N 44°51' E 036°30'910.6
2016-May-28 16:17N 44°59' E 036°30'810.5
2016-May-28 15:34N 45°07' E 036°33'1 0.1
2016-May-27 22:33N 45°06' E 036°35'0 0.0
2016-May-27 12:29N 45°06' E 036°35'0 0.0
2016-May-27 02:20N 45°06' E 036°35'50 1.7
2016-May-25 20:32N 44°26' E 037°17'1612.5
2016-May-25 19:14N 44°18' E 037°38'912.6
2016-May-25 18:32N 44°15' E 037°49'2612.5
2016-May-25 16:28N 44°07' E 038°24'1112.3
2016-May-25 15:33N 44°05' E 038°39'1212.4
2016-May-25 14:33N 44°02' E 038°55'7 7.2
2016-May-25 13:32N 44°03' E 039°05'0 0.0
2016-May-25 12:31N 44°03' E 039°05'0 0.0
2016-May-25 11:31N 44°03' E 039°05'0 0.0
2016-May-25 10:31N 44°03' E 039°05'0 0.0
2016-May-25 09:31N 44°03' E 039°05'0 0.0
2016-May-25 08:31N 44°03' E 039°05'0 0.0
2016-May-25 07:31N 44°03' E 039°05'0 0.0
2016-May-25 06:31N 44°03' E 039°05'0 0.0
2016-May-25 05:31N 44°03' E 039°05'0 0.0
2016-May-25 04:31N 44°03' E 039°05'0 0.0
2016-May-25 03:31N 44°03' E 039°05'0 0.0
2016-May-25 02:31N 44°03' E 039°05'0 0.0
2016-May-25 01:31N 44°03' E 039°05'0 0.0
2016-May-25 00:31N 44°03' E 039°05'0 0.0
2016-May-24 23:31N 44°03' E 039°05'0 0.0
2016-May-24 22:31N 44°03' E 039°05'0 0.0
2016-May-24 21:31N 44°03' E 039°05'0 0.1
2016-May-24 20:31N 44°03' E 039°05'0 0.0
2016-May-24 19:31N 44°03' E 039°05'0 0.0
2016-May-24 18:31N 44°03' E 039°05'0 0.0
2016-May-24 17:31N 44°03' E 039°05'0 0.0
2016-May-24 16:31N 44°03' E 039°05'0 0.1
2016-May-24 15:19N 44°03' E 039°05'0 0.0
2016-May-24 14:31N 44°03' E 039°05'0 0.0
2016-May-24 13:31N 44°03' E 039°05'0 0.0
2016-May-24 12:31N 44°03' E 039°05'0 0.0
2016-May-24 11:31N 44°03' E 039°05'0 0.0
2016-May-24 10:31N 44°03' E 039°05'0 0.2
2016-May-24 09:31N 44°03' E 039°05'0 0.1
2016-May-24 08:31N 44°03' E 039°05'0 0.1
2016-May-24 07:28N 44°03' E 039°05'0 0.0
2016-May-24 06:31N 44°03' E 039°05'0 0.0
2016-May-24 05:31N 44°03' E 039°05'0 0.1
2016-May-24 04:31N 44°03' E 039°05'0 0.0
2016-May-24 03:34N 44°03' E 039°05'0 0.0
2016-May-24 02:33N 44°03' E 039°05'0 0.0
2016-May-24 01:33N 44°03' E 039°05'0 0.0
2016-May-24 00:33N 44°03' E 039°05'0 0.0
2016-May-23 23:33N 44°03' E 039°05'0 0.0
2016-May-23 22:33N 44°03' E 039°05'0 0.0
2016-May-23 21:30N 44°03' E 039°05'0 0.1
2016-May-23 20:33N 44°03' E 039°05'0 0.0
2016-May-23 19:33N 44°03' E 039°05'0 0.0
2016-May-23 18:33N 44°03' E 039°05'0 0.1
2016-May-23 17:33N 44°03' E 039°05'0 0.0
2016-May-23 16:30N 44°03' E 039°05'0 0.0
2016-May-23 15:33N 44°03' E 039°05'0 0.1
2016-May-23 14:33N 44°03' E 039°05'0 0.0
2016-May-23 13:30N 44°03' E 039°05'0 0.1
2016-May-23 12:33N 44°03' E 039°05'0 0.0
2016-May-23 11:33N 44°03' E 039°05'0 0.0
2016-May-23 10:33N 44°03' E 039°05'0 0.0
2016-May-23 09:33N 44°03' E 039°05'0 0.0
2016-May-23 08:33N 44°03' E 039°05'0 0.0
2016-May-23 07:33N 44°03' E 039°05'0 0.0
2016-May-23 06:33N 44°03' E 039°05'0 0.1
2016-May-23 05:33N 44°03' E 039°05'0 0.0
2016-May-23 04:33N 44°03' E 039°05'0 0.1
2016-May-23 03:33N 44°03' E 039°05'0 0.1
2016-May-23 02:33N 44°03' E 039°05'0 0.0
2016-May-23 01:33N 44°03' E 039°05'0 0.1
2016-May-23 00:33N 44°03' E 039°05'0 0.1
2016-May-22 23:33N 44°03' E 039°05'0 0.0
2016-May-22 22:33N 44°03' E 039°05'4 4.5
2016-May-22 21:33N 43°60' E 039°01'8 8.2
2016-May-22 20:34N 43°57' E 038°50'8 8.0
2016-May-22 19:33N 43°55' E 038°40'133 9.5
2016-May-22 05:32N 43°26' E 035°41'8 7.7
2016-May-22 04:33N 43°24' E 035°31'8 7.8
2016-May-22 03:29N 43°22' E 035°20'315 7.6
2016-May-20 10:10N 40°60' E 028°60'6 9.2
2016-May-20 09:33N 40°54' E 028°57'4 0.7
2016-May-20 04:05N 40°51' E 028°55'1 0.7
2016-May-20 03:17N 40°51' E 028°55'4 5.9
2016-May-20 02:32N 40°50' E 028°50'  
Track history (hours):
 
Tides and Currents Weather Stations Pressure Air Temp Water Temp Dewpoint Dewpoint Depression Visibility Wind Speed Wind Dir Waves Ship Positions

Rosa Maersk

Last reported at 2016-May-28 17:05 UTC. Time now 2016-May-31 14:18 UTC.
Position N 44°51' E 036°30'.

Length 172 m; draft 8.8 m.

Type: Ship. MMSI: 220288000.

Date/timePositionNaut miles runAvg speedWind from/ knotsBaromVisibWave heightAir tempDewpointWater temp
2016-May-28 17:05N 44°51' E 036°30'910.6
2016-May-28 16:17N 44°59' E 036°30'810.5
2016-May-28 15:34N 45°07' E 036°33'1 0.1
2016-May-27 22:33N 45°06' E 036°35'0 0.0
2016-May-27 12:29N 45°06' E 036°35'0 0.0
2016-May-27 02:20N 45°06' E 036°35'50 1.7
2016-May-25 20:32N 44°26' E 037°17'1612.5
2016-May-25 19:14N 44°18' E 037°38'912.6
2016-May-25 18:32N 44°15' E 037°49'2612.5
2016-May-25 16:28N 44°07' E 038°24'1112.3
2016-May-25 15:33N 44°05' E 038°39'1212.4
2016-May-25 14:33N 44°02' E 038°55'7 7.2
2016-May-25 13:32N 44°03' E 039°05'0 0.0
2016-May-25 12:31N 44°03' E 039°05'0 0.0
2016-May-25 11:31N 44°03' E 039°05'0 0.0
2016-May-25 10:31N 44°03' E 039°05'0 0.0
2016-May-25 09:31N 44°03' E 039°05'0 0.0
2016-May-25 08:31N 44°03' E 039°05'0 0.0
2016-May-25 07:31N 44°03' E 039°05'0 0.0
2016-May-25 06:31N 44°03' E 039°05'0 0.0
2016-May-25 05:31N 44°03' E 039°05'0 0.0
2016-May-25 04:31N 44°03' E 039°05'0 0.0
2016-May-25 03:31N 44°03' E 039°05'0 0.0
2016-May-25 02:31N 44°03' E 039°05'0 0.0
2016-May-25 01:31N 44°03' E 039°05'0 0.0
2016-May-25 00:31N 44°03' E 039°05'0 0.0
2016-May-24 23:31N 44°03' E 039°05'0 0.0
2016-May-24 22:31N 44°03' E 039°05'0 0.0
2016-May-24 21:31N 44°03' E 039°05'0 0.1
2016-May-24 20:31N 44°03' E 039°05'0 0.0
2016-May-24 19:31N 44°03' E 039°05'0 0.0
2016-May-24 18:31N 44°03' E 039°05'0 0.0
2016-May-24 17:31N 44°03' E 039°05'0 0.0
2016-May-24 16:31N 44°03' E 039°05'0 0.1
2016-May-24 15:19N 44°03' E 039°05'0 0.0
2016-May-24 14:31N 44°03' E 039°05'0 0.0
2016-May-24 13:31N 44°03' E 039°05'0 0.0
2016-May-24 12:31N 44°03' E 039°05'0 0.0
2016-May-24 11:31N 44°03' E 039°05'0 0.0
2016-May-24 10:31N 44°03' E 039°05'0 0.2
2016-May-24 09:31N 44°03' E 039°05'0 0.1
2016-May-24 08:31N 44°03' E 039°05'0 0.1
2016-May-24 07:28N 44°03' E 039°05'0 0.0
2016-May-24 06:31N 44°03' E 039°05'0 0.0
2016-May-24 05:31N 44°03' E 039°05'0 0.1
2016-May-24 04:31N 44°03' E 039°05'0 0.0
2016-May-24 03:34N 44°03' E 039°05'0 0.0
2016-May-24 02:33N 44°03' E 039°05'0 0.0
2016-May-24 01:33N 44°03' E 039°05'0 0.0
2016-May-24 00:33N 44°03' E 039°05'0 0.0
2016-May-23 23:33N 44°03' E 039°05'0 0.0
2016-May-23 22:33N 44°03' E 039°05'0 0.0
2016-May-23 21:30N 44°03' E 039°05'0 0.1
2016-May-23 20:33N 44°03' E 039°05'0 0.0
2016-May-23 19:33N 44°03' E 039°05'0 0.0
2016-May-23 18:33N 44°03' E 039°05'0 0.1
2016-May-23 17:33N 44°03' E 039°05'0 0.0
2016-May-23 16:30N 44°03' E 039°05'0 0.0
2016-May-23 15:33N 44°03' E 039°05'0 0.1
2016-May-23 14:33N 44°03' E 039°05'0 0.0
2016-May-23 13:30N 44°03' E 039°05'0 0.1
2016-May-23 12:33N 44°03' E 039°05'0 0.0
2016-May-23 11:33N 44°03' E 039°05'0 0.0
2016-May-23 10:33N 44°03' E 039°05'0 0.0
2016-May-23 09:33N 44°03' E 039°05'0 0.0
2016-May-23 08:33N 44°03' E 039°05'0 0.0
2016-May-23 07:33N 44°03' E 039°05'0 0.0
2016-May-23 06:33N 44°03' E 039°05'0 0.1
2016-May-23 05:33N 44°03' E 039°05'0 0.0
2016-May-23 04:33N 44°03' E 039°05'0 0.1
2016-May-23 03:33N 44°03' E 039°05'0 0.1
2016-May-23 02:33N 44°03' E 039°05'0 0.0
2016-May-23 01:33N 44°03' E 039°05'0 0.1
2016-May-23 00:33N 44°03' E 039°05'0 0.1
2016-May-22 23:33N 44°03' E 039°05'0 0.0
2016-May-22 22:33N 44°03' E 039°05'4 4.5
2016-May-22 21:33N 43°60' E 039°01'8 8.2
2016-May-22 20:34N 43°57' E 038°50'8 8.0
2016-May-22 19:33N 43°55' E 038°40'133 9.5
2016-May-22 05:32N 43°26' E 035°41'8 7.7
2016-May-22 04:33N 43°24' E 035°31'8 7.8
2016-May-22 03:29N 43°22' E 035°20'315 7.6
2016-May-20 10:10N 40°60' E 028°60'6 9.2
2016-May-20 09:33N 40°54' E 028°57'4 0.7
2016-May-20 04:05N 40°51' E 028°55'1 0.7
2016-May-20 03:17N 40°51' E 028°55'4 5.9
2016-May-20 02:32N 40°50' E 028°50'  

Dump ship's entire track history